Time;durP1;ratioP1;P1;durP2;ratioP2;P2;SDS_P1;SDS_P2;PMS_P1;PMS_P2;Temp;Humidity;BMP_temperature;BMP_pressure;BME280_temperature;BME280_humidity;BME280_pressure;Samples;Min_cycle;Max_cycle;Signal;HPM_P1;HPM_P2
2022/11/12 00:02:07;;;;;;;19.83;14.00;;;;;;;;;;5035648;28;20311;-79
2022/11/12 00:04:35;;;;;;;18.43;14.27;;;;;;;;;;5023728;28;20289;-79
2022/11/12 00:07:02;;;;;;;17.70;13.37;;;;;;;;;;5017732;28;20792;-79
2022/11/12 00:09:30;;;;;;;17.83;13.60;;;;;;;;;;5028711;28;20285;-79
2022/11/12 00:11:57;;;;;;;21.03;14.73;;;;;;;;;;5028421;28;20746;-79
2022/11/12 00:14:24;;;;;;;19.67;13.07;;;;;;;;;;5025677;28;20301;-80
2022/11/12 00:16:51;;;;;;;19.37;14.13;;;;;;;;;;5035495;28;20265;-80
2022/11/12 00:19:18;;;;;;;19.00;14.33;;;;;;;;;;5028482;28;20279;-79
2022/11/12 00:21:47;;;;;;;18.33;14.13;;;;;;;;;;5029801;28;20350;-79
2022/11/12 00:24:14;;;;;;;20.20;14.80;;;;;;;;;;5035335;28;20283;-79
2022/11/12 00:26:41;;;;;;;19.43;13.93;;;;;;;;;;5035588;28;20235;-79
2022/11/12 00:29:08;;;;;;;21.20;15.37;;;;;;;;;;5034273;28;20311;-79
2022/11/12 00:31:36;;;;;;;20.30;15.50;;;;;;;;;;5020903;28;20228;-79
2022/11/12 00:34:03;;;;;;;21.10;15.67;;;;;;;;;;5028923;28;20239;-79
2022/11/12 00:36:30;;;;;;;18.93;15.27;;;;;;;;;;5017785;28;20285;-79
2022/11/12 00:38:59;;;;;;;22.17;15.80;;;;;;;;;;5021665;28;20285;-79
2022/11/12 00:41:26;;;;;;;22.30;15.47;;;;;;;;;;5024605;28;20252;-79
2022/11/12 00:43:53;;;;;;;20.37;14.30;;;;;;;;;;5025120;28;20232;-79
2022/11/12 00:46:20;;;;;;;18.00;14.17;;;;;;;;;;5022318;28;20232;-78
2022/11/12 00:48:48;;;;;;;17.93;14.00;;;;;;;;;;5014888;28;20297;-79
2022/11/12 00:51:15;;;;;;;19.00;13.90;;;;;;;;;;5013781;28;20323;-79
2022/11/12 00:53:42;;;;;;;18.70;14.47;;;;;;;;;;5027439;28;20283;-79
2022/11/12 00:56:11;;;;;;;17.57;13.17;;;;;;;;;;5023754;28;20236;-79
2022/11/12 00:58:38;;;;;;;18.53;13.67;;;;;;;;;;5026139;28;20201;-79
2022/11/12 01:01:07;;;;;;;17.50;14.13;;;;;;;;;;5019853;28;20224;-79
2022/11/12 01:03:34;;;;;;;18.17;13.23;;;;;;;;;;5030716;28;20236;-79
2022/11/12 01:06:05;;;;;;;18.53;13.47;;;;;;;;;;5014287;28;20207;-79
2022/11/12 01:08:32;;;;;;;19.60;14.07;;;;;;;;;;5021281;28;20280;-79
2022/11/12 01:11:05;;;;;;;18.07;13.30;;;;;;;;;;5014751;28;20248;-79
2022/11/12 01:13:33;;;;;;;19.07;13.43;;;;;;;;;;5015266;28;20681;-79
2022/11/12 01:16:05;;;;;;;18.10;13.43;;;;;;;;;;5020928;28;20692;-79
2022/11/12 01:18:32;;;;;;;20.07;14.13;;;;;;;;;;5014461;28;20240;-79
2022/11/12 01:21:01;;;;;;;18.93;14.07;;;;;;;;;;5016038;28;20736;-79
2022/11/12 01:23:28;;;;;;;17.83;14.20;;;;;;;;;;5021120;28;20215;-79
2022/11/12 01:25:55;;;;;;;19.40;14.40;;;;;;;;;;5013940;28;20296;-79
2022/11/12 01:28:22;;;;;;;18.90;14.83;;;;;;;;;;5023304;28;20289;-79
2022/11/12 01:30:51;;;;;;;19.13;14.07;;;;;;;;;;5014894;28;20332;-79
2022/11/12 01:33:18;;;;;;;19.13;13.93;;;;;;;;;;5015676;28;20368;-79
2022/11/12 01:35:45;;;;;;;19.10;13.50;;;;;;;;;;5016333;28;20653;-79
2022/11/12 01:38:12;;;;;;;17.60;13.13;;;;;;;;;;5014147;28;20233;-79
2022/11/12 01:40:39;;;;;;;19.93;13.83;;;;;;;;;;5014073;28;20284;-79
2022/11/12 01:43:10;;;;;;;19.37;14.73;;;;;;;;;;5028199;28;20286;-79
2022/11/12 01:45:38;;;;;;;22.77;13.57;;;;;;;;;;5024547;28;20282;-79
2022/11/12 01:48:07;;;;;;;16.57;13.33;;;;;;;;;;5032302;28;20622;-79
2022/11/12 01:50:36;;;;;;;17.80;13.70;;;;;;;;;;5014283;28;20247;-79
2022/11/12 01:53:05;;;;;;;18.00;13.97;;;;;;;;;;5014322;28;20289;-79
2022/11/12 01:55:35;;;;;;;19.07;13.50;;;;;;;;;;5020140;28;20287;-79
2022/11/12 01:58:06;;;;;;;20.57;14.73;;;;;;;;;;5026197;28;20235;-79
2022/11/12 02:00:33;;;;;;;19.90;14.83;;;;;;;;;;5017496;28;20284;-79
2022/11/12 02:03:01;;;;;;;19.87;14.20;;;;;;;;;;5022455;28;20266;-79
2022/11/12 02:05:31;;;;;;;19.57;14.07;;;;;;;;;;5026279;28;20283;-79
2022/11/12 02:08:00;;;;;;;19.50;15.07;;;;;;;;;;5018515;28;20251;-79
2022/11/12 02:10:27;;;;;;;21.80;14.53;;;;;;;;;;5012848;28;20237;-79
2022/11/12 02:15:48;;;;;;;19.10;14.43;;;;;;;;;;4977911;28;20197;-78
2022/11/12 02:18:16;;;;;;;18.03;13.87;;;;;;;;;;5016235;28;20201;-79
2022/11/12 02:20:44;;;;;;;19.20;14.47;;;;;;;;;;5012274;28;20283;-79
2022/11/12 02:23:13;;;;;;;21.13;14.20;;;;;;;;;;5013140;28;20304;-79
2022/11/12 02:25:40;;;;;;;21.00;14.50;;;;;;;;;;5012504;28;20204;-79
2022/11/12 02:28:09;;;;;;;19.23;15.20;;;;;;;;;;5013216;28;20247;-79
2022/11/12 02:30:37;;;;;;;20.87;15.60;;;;;;;;;;5012481;28;20275;-79
2022/11/12 02:33:04;;;;;;;22.90;15.50;;;;;;;;;;5013303;28;20698;-79
2022/11/12 02:35:31;;;;;;;20.70;15.27;;;;;;;;;;5024483;28;20210;-79
2022/11/12 02:37:59;;;;;;;23.20;15.90;;;;;;;;;;5012888;28;20295;-79
2022/11/12 02:40:27;;;;;;;21.73;14.97;;;;;;;;;;5013856;28;20236;-79
2022/11/12 02:42:55;;;;;;;21.40;15.77;;;;;;;;;;5020638;28;20751;-79
2022/11/12 02:45:22;;;;;;;20.17;15.10;;;;;;;;;;5026050;28;20208;-79
2022/11/12 02:47:49;;;;;;;22.50;16.27;;;;;;;;;;5025242;28;20293;-78
2022/11/12 02:50:17;;;;;;;22.00;15.77;;;;;;;;;;5032769;28;20235;-78
2022/11/12 02:52:44;;;;;;;20.17;15.50;;;;;;;;;;5016360;28;20284;-80
2022/11/12 02:55:13;;;;;;;22.07;16.13;;;;;;;;;;5013086;28;20251;-77
2022/11/12 02:57:42;;;;;;;20.10;15.97;;;;;;;;;;5012421;28;20211;-79
2022/11/12 03:00:11;;;;;;;23.13;16.50;;;;;;;;;;5018276;28;20196;-79
2022/11/12 03:02:41;;;;;;;20.23;16.53;;;;;;;;;;5014256;28;20708;-78
2022/11/12 03:05:09;;;;;;;22.50;17.23;;;;;;;;;;5012561;28;20236;-79
2022/11/12 03:07:36;;;;;;;21.37;16.47;;;;;;;;;;5012903;28;20780;-79
2022/11/12 03:10:03;;;;;;;24.07;17.40;;;;;;;;;;5012639;28;20292;-79
2022/11/12 03:12:31;;;;;;;23.97;16.90;;;;;;;;;;5011625;28;20283;-79
2022/11/12 03:15:00;;;;;;;20.40;15.83;;;;;;;;;;5028503;28;20243;-80
2022/11/12 03:17:27;;;;;;;22.33;16.73;;;;;;;;;;5030385;28;20295;-79
2022/11/12 03:19:54;;;;;;;23.60;17.07;;;;;;;;;;5032624;28;20320;-77
2022/11/12 03:22:21;;;;;;;22.53;16.47;;;;;;;;;;5009569;28;20221;-77
2022/11/12 03:24:48;;;;;;;21.43;16.13;;;;;;;;;;5022403;28;20671;-77
2022/11/12 03:27:16;;;;;;;26.80;17.50;;;;;;;;;;5031642;28;20642;-77
2022/11/12 03:29:43;;;;;;;23.50;16.87;;;;;;;;;;5013270;28;20264;-79
2022/11/12 03:32:11;;;;;;;20.87;16.37;;;;;;;;;;5013973;28;20292;-79
2022/11/12 03:34:38;;;;;;;21.30;16.33;;;;;;;;;;5012373;28;20629;-79
2022/11/12 03:37:08;;;;;;;23.63;17.83;;;;;;;;;;5012795;28;20576;-79
2022/11/12 03:39:35;;;;;;;20.50;16.50;;;;;;;;;;5024555;28;20201;-79
2022/11/12 03:42:03;;;;;;;22.93;16.33;;;;;;;;;;5021475;28;20248;-79
2022/11/12 03:44:30;;;;;;;22.23;16.57;;;;;;;;;;5020565;28;20212;-79
2022/11/12 03:46:57;;;;;;;20.93;16.87;;;;;;;;;;5019804;28;20211;-79
2022/11/12 03:49:26;;;;;;;22.57;16.17;;;;;;;;;;5012567;28;20236;-79
2022/11/12 03:51:53;;;;;;;21.73;16.67;;;;;;;;;;5014439;28;20840;-80
2022/11/12 03:54:20;;;;;;;23.80;17.13;;;;;;;;;;5032541;28;20236;-79
2022/11/12 03:56:47;;;;;;;23.90;16.47;;;;;;;;;;5027462;28;20274;-81
2022/11/12 03:59:14;;;;;;;21.53;16.80;;;;;;;;;;5031888;28;20236;-81
2022/11/12 04:01:42;;;;;;;22.07;15.90;;;;;;;;;;5011904;28;20667;-81
2022/11/12 04:04:10;;;;;;;23.13;16.70;;;;;;;;;;5011956;28;20280;-81
2022/11/12 04:09:23;;;;;;;21.80;16.93;;;;;;;;;;5006816;28;20336;-82
2022/11/12 04:11:50;;;;;;;23.47;17.67;;;;;;;;;;5011867;28;20237;-82
2022/11/12 04:14:16;;;;;;;22.37;16.67;;;;;;;;;;5011833;28;20287;-82
2022/11/12 04:22:14;;;;;;;24.07;16.60;;;;;;;;;;5019156;28;20715;-81
2022/11/12 04:27:28;;;;;;;22.90;16.40;;;;;;;;;;5018841;28;20203;-81
2022/11/12 04:32:41;;;;;;;23.20;17.00;;;;;;;;;;5014690;28;20211;-81
2022/11/12 04:35:09;;;;;;;24.03;16.70;;;;;;;;;;5024013;28;20626;-81
2022/11/12 04:37:47;;;;;;;21.00;17.03;;;;;;;;;;5029883;28;20283;-81
2022/11/12 04:45:46;;;;;;;24.23;16.93;;;;;;;;;;5025387;28;20571;-81
2022/11/12 04:48:14;;;;;;;21.50;16.73;;;;;;;;;;5027661;28;20278;-82
2022/11/12 04:50:41;;;;;;;22.30;16.63;;;;;;;;;;5026395;28;20236;-81
2022/11/12 04:53:10;;;;;;;21.53;16.10;;;;;;;;;;5020816;28;20283;-82
2022/11/12 04:55:37;;;;;;;21.77;16.20;;;;;;;;;;5015851;28;20288;-81
2022/11/12 04:58:04;;;;;;;22.00;17.20;;;;;;;;;;5014421;28;20236;-81
2022/11/12 05:00:31;;;;;;;25.17;16.60;;;;;;;;;;5014823;28;20232;-82
2022/11/12 05:02:59;;;;;;;23.03;16.53;;;;;;;;;;5014152;28;20311;-81
2022/11/12 05:05:26;;;;;;;25.07;17.30;;;;;;;;;;5019056;28;20232;-81
2022/11/12 05:07:53;;;;;;;23.23;17.40;;;;;;;;;;5020362;28;20295;-81
2022/11/12 05:10:22;;;;;;;24.07;17.20;;;;;;;;;;5034776;28;20239;-81
2022/11/12 05:12:49;;;;;;;25.93;17.37;;;;;;;;;;5022418;28;20232;-81
2022/11/12 05:15:16;;;;;;;21.03;16.77;;;;;;;;;;5015000;28;20296;-81
2022/11/12 05:17:43;;;;;;;24.30;17.70;;;;;;;;;;5014508;28;20215;-81
2022/11/12 05:20:11;;;;;;;22.47;16.87;;;;;;;;;;5014803;28;20237;-81
2022/11/12 05:22:38;;;;;;;24.83;17.17;;;;;;;;;;5014691;28;20308;-82
2022/11/12 05:25:06;;;;;;;22.73;17.20;;;;;;;;;;5014307;28;20225;-81
2022/11/12 05:27:35;;;;;;;23.40;16.43;;;;;;;;;;5033990;28;20232;-81
2022/11/12 05:30:02;;;;;;;21.53;16.63;;;;;;;;;;5025366;28;20326;-81
2022/11/12 05:32:29;;;;;;;21.80;16.60;;;;;;;;;;5015516;28;20232;-81
2022/11/12 05:34:57;;;;;;;20.63;16.63;;;;;;;;;;5018417;28;20296;-81
2022/11/12 05:37:24;;;;;;;21.37;16.53;;;;;;;;;;5013800;28;20288;-81
2022/11/12 05:39:51;;;;;;;24.57;16.63;;;;;;;;;;5014264;28;20239;-81
2022/11/12 05:42:18;;;;;;;26.10;17.23;;;;;;;;;;5020477;28;20319;-81
2022/11/12 05:44:47;;;;;;;23.27;16.93;;;;;;;;;;5014076;28;20677;-81
2022/11/12 05:47:14;;;;;;;24.67;17.20;;;;;;;;;;5022297;28;20286;-82
2022/11/12 05:49:42;;;;;;;21.87;16.33;;;;;;;;;;5033609;28;20200;-81
2022/11/12 05:52:09;;;;;;;22.73;17.53;;;;;;;;;;5019921;28;20288;-82
2022/11/12 05:54:36;;;;;;;23.87;16.90;;;;;;;;;;5034049;28;20228;-82
2022/11/12 05:57:04;;;;;;;24.30;17.43;;;;;;;;;;5019899;28;20744;-82
2022/11/12 05:59:31;;;;;;;26.53;17.40;;;;;;;;;;5019301;28;20291;-82
2022/11/12 06:02:00;;;;;;;25.77;17.00;;;;;;;;;;5014905;28;20236;-82
2022/11/12 06:04:27;;;;;;;27.90;18.03;;;;;;;;;;5013342;28;20822;-82
2022/11/12 06:06:54;;;;;;;22.13;16.53;;;;;;;;;;5019786;28;20283;-81
2022/11/12 06:09:21;;;;;;;27.17;17.93;;;;;;;;;;5028469;28;20363;-81
2022/11/12 06:11:49;;;;;;;25.67;17.37;;;;;;;;;;5017420;28;20742;-81
2022/11/12 06:14:16;;;;;;;26.10;18.10;;;;;;;;;;5031014;28;20226;-81
2022/11/12 06:16:43;;;;;;;24.83;17.43;;;;;;;;;;5032803;28;20250;-82
2022/11/12 06:19:12;;;;;;;29.03;17.83;;;;;;;;;;4996974;28;20295;-82
2022/11/12 06:21:39;;;;;;;27.77;18.40;;;;;;;;;;5017983;28;20295;-82
2022/11/12 06:24:06;;;;;;;26.40;18.47;;;;;;;;;;5013132;28;20407;-82
2022/11/12 06:26:33;;;;;;;23.33;17.80;;;;;;;;;;5030691;28;20287;-81
2022/11/12 06:29:00;;;;;;;25.90;17.57;;;;;;;;;;5024721;28;20240;-81
2022/11/12 06:31:28;;;;;;;26.10;17.90;;;;;;;;;;5014823;28;20640;-82
2022/11/12 06:33:55;;;;;;;28.43;17.87;;;;;;;;;;5012928;28;20222;-81
2022/11/12 06:36:23;;;;;;;25.13;18.17;;;;;;;;;;5015953;28;20213;-81
2022/11/12 06:38:50;;;;;;;23.80;17.40;;;;;;;;;;5029412;28;20625;-81
2022/11/12 06:41:18;;;;;;;25.77;17.87;;;;;;;;;;5014357;28;20288;-81
2022/11/12 06:43:45;;;;;;;24.03;17.23;;;;;;;;;;5022867;28;20259;-81
2022/11/12 06:46:13;;;;;;;22.40;16.60;;;;;;;;;;5031003;28;20301;-81
2022/11/12 06:48:40;;;;;;;26.23;17.73;;;;;;;;;;5020991;28;20280;-81
2022/11/12 06:51:09;;;;;;;25.53;16.97;;;;;;;;;;5016808;28;20291;-81
2022/11/12 06:53:38;;;;;;;28.90;17.13;;;;;;;;;;5017569;28;20278;-81
2022/11/12 06:56:06;;;;;;;23.60;16.97;;;;;;;;;;5031257;28;20288;-81
2022/11/12 06:58:34;;;;;;;26.17;17.77;;;;;;;;;;5028951;28;20240;-81
2022/11/12 07:01:08;;;;;;;25.97;18.23;;;;;;;;;;5012859;28;20747;-81
2022/11/12 07:03:36;;;;;;;25.40;17.77;;;;;;;;;;5012806;28;20263;-81
2022/11/12 07:06:07;;;;;;;26.37;18.13;;;;;;;;;;5012755;28;20228;-81
2022/11/12 07:08:34;;;;;;;27.40;18.70;;;;;;;;;;5015022;28;20619;-81
2022/11/12 07:11:03;;;;;;;27.50;18.87;;;;;;;;;;5025242;28;20241;-81
2022/11/12 07:13:31;;;;;;;27.40;18.43;;;;;;;;;;5020830;28;20240;-81
2022/11/12 07:15:58;;;;;;;27.63;18.50;;;;;;;;;;5024079;28;20213;-81
2022/11/12 07:18:26;;;;;;;29.10;18.80;;;;;;;;;;5018140;28;20211;-81
2022/11/12 07:20:58;;;;;;;28.87;19.67;;;;;;;;;;5013098;28;20715;-81
2022/11/12 07:23:25;;;;;;;26.90;18.77;;;;;;;;;;5023432;28;20247;-81
2022/11/12 07:25:56;;;;;;;27.97;18.57;;;;;;;;;;5028475;28;20284;-79
2022/11/12 07:28:25;;;;;;;29.63;18.80;;;;;;;;;;5028249;28;20199;-79
2022/11/12 07:30:55;;;;;;;29.70;18.80;;;;;;;;;;5012363;28;20319;-79
2022/11/12 07:33:23;;;;;;;26.67;18.67;;;;;;;;;;5012562;28;20582;-79
2022/11/12 07:35:50;;;;;;;29.77;18.93;;;;;;;;;;5013298;28;20206;-79
2022/11/12 07:38:17;;;;;;;26.77;18.57;;;;;;;;;;5017326;28;20197;-79
2022/11/12 07:40:44;;;;;;;28.27;19.17;;;;;;;;;;5021996;28;20245;-79
2022/11/12 07:43:11;;;;;;;28.33;19.80;;;;;;;;;;5012697;28;20224;-79
2022/11/12 07:45:40;;;;;;;23.97;18.80;;;;;;;;;;5013050;28;20295;-79
2022/11/12 07:48:07;;;;;;;24.87;18.17;;;;;;;;;;5026350;28;20328;-79
2022/11/12 07:50:34;;;;;;;24.07;17.80;;;;;;;;;;5012550;28;20284;-79
2022/11/12 07:53:01;;;;;;;19.77;15.90;;;;;;;;;;5016843;28;20227;-78
2022/11/12 07:55:28;;;;;;;18.20;14.70;;;;;;;;;;5021682;28;20276;-78
2022/11/12 07:57:59;;;;;;;15.20;13.60;;;;;;;;;;5012503;28;20284;-77
2022/11/12 08:00:26;;;;;;;15.17;11.87;;;;;;;;;;5014190;28;20672;-77
2022/11/12 08:02:55;;;;;;;13.03;11.00;;;;;;;;;;5017039;28;20256;-77
2022/11/12 08:05:22;;;;;;;12.23;10.63;;;;;;;;;;5016165;28;20673;-78
2022/11/12 08:07:49;;;;;;;11.80;10.60;;;;;;;;;;5016376;28;20255;-77
2022/11/12 08:10:16;;;;;;;11.40;10.27;;;;;;;;;;5015830;28;20229;-78
2022/11/12 08:12:44;;;;;;;13.63;9.93;;;;;;;;;;5012569;28;20211;-78
2022/11/12 08:15:11;;;;;;;11.40;9.57;;;;;;;;;;5019267;28;20197;-78
2022/11/12 08:17:39;;;;;;;9.90;9.00;;;;;;;;;;5015242;28;20292;-78
2022/11/12 08:20:08;;;;;;;9.13;8.23;;;;;;;;;;5015983;28;20631;-78
2022/11/12 08:22:36;;;;;;;9.18;8.18;;;;;;;;;;5015380;28;20284;-78
2022/11/12 08:25:03;;;;;;;9.23;8.32;;;;;;;;;;5015136;28;20618;-77
2022/11/12 08:27:30;;;;;;;8.98;8.10;;;;;;;;;;5015555;28;20205;-78
2022/11/12 08:29:57;;;;;;;10.45;8.02;;;;;;;;;;5015003;28;20320;-78
2022/11/12 08:32:24;;;;;;;9.48;7.88;;;;;;;;;;5014348;28;20201;-78
2022/11/12 08:34:51;;;;;;;8.98;8.07;;;;;;;;;;5029869;28;20250;-78
2022/11/12 08:37:20;;;;;;;9.00;7.95;;;;;;;;;;5022324;28;20228;-78
2022/11/12 08:39:47;;;;;;;9.02;8.13;;;;;;;;;;5023828;28;20280;-78
2022/11/12 08:42:14;;;;;;;9.30;8.20;;;;;;;;;;5015147;28;20201;-78
2022/11/12 08:44:42;;;;;;;8.77;7.45;;;;;;;;;;5015113;28;20260;-78
2022/11/12 08:47:09;;;;;;;8.05;7.25;;;;;;;;;;5018067;28;20304;-78
2022/11/12 08:49:36;;;;;;;8.30;7.38;;;;;;;;;;5014701;28;20284;-78
2022/11/12 08:52:04;;;;;;;9.43;7.70;;;;;;;;;;5011508;28;20233;-78
2022/11/12 08:54:32;;;;;;;8.43;7.22;;;;;;;;;;5015036;28;20277;-78
2022/11/12 08:56:59;;;;;;;9.32;7.60;;;;;;;;;;5015010;28;20296;-76
2022/11/12 08:59:26;;;;;;;7.93;7.13;;;;;;;;;;5020209;28;20207;-78
2022/11/12 09:01:53;;;;;;;7.97;7.13;;;;;;;;;;5030228;28;20197;-78
2022/11/12 09:04:21;;;;;;;7.75;7.00;;;;;;;;;;5027137;28;20315;-77
2022/11/12 09:06:48;;;;;;;7.53;6.80;;;;;;;;;;5034422;28;20206;-77
2022/11/12 09:09:15;;;;;;;8.40;6.97;;;;;;;;;;5026006;28;20655;-78
2022/11/12 09:11:44;;;;;;;7.78;7.07;;;;;;;;;;5017937;28;20241;-78
2022/11/12 09:14:11;;;;;;;9.25;7.50;;;;;;;;;;5014867;28;20232;-78
2022/11/12 09:16:38;;;;;;;8.07;6.63;;;;;;;;;;5014857;28;20227;-78
2022/11/12 09:19:05;;;;;;;8.50;7.25;;;;;;;;;;5034413;28;20235;-79
2022/11/12 09:21:33;;;;;;;9.35;7.05;;;;;;;;;;5018408;28;20236;-79
2022/11/12 09:24:00;;;;;;;8.98;6.82;;;;;;;;;;5033834;28;20312;-79
2022/11/12 09:26:27;;;;;;;9.23;7.13;;;;;;;;;;5025860;28;20292;-78
2022/11/12 09:28:55;;;;;;;8.95;7.03;;;;;;;;;;5021678;28;20308;-79
2022/11/12 09:31:24;;;;;;;8.40;6.55;;;;;;;;;;5014193;28;20288;-79
2022/11/12 09:33:51;;;;;;;9.15;6.75;;;;;;;;;;5012794;28;20681;-79
2022/11/12 09:36:18;;;;;;;7.32;6.10;;;;;;;;;;5018784;28;20239;-79
2022/11/12 09:38:46;;;;;;;8.27;6.10;;;;;;;;;;5017364;28;20236;-79
2022/11/12 09:41:17;;;;;;;7.75;5.72;;;;;;;;;;5032099;28;20283;-79
2022/11/12 09:43:48;;;;;;;7.40;5.68;;;;;;;;;;5022559;28;20268;-79
2022/11/12 09:46:24;;;;;;;6.20;5.60;;;;;;;;;;5013080;28;20197;-78
2022/11/12 09:48:55;;;;;;;6.93;5.30;;;;;;;;;;5013172;28;20243;-79
2022/11/12 09:51:25;;;;;;;5.80;5.20;;;;;;;;;;5013626;28;20748;-79
2022/11/12 09:53:55;;;;;;;7.97;5.15;;;;;;;;;;5013679;28;20283;-79
2022/11/12 09:56:23;;;;;;;6.32;5.53;;;;;;;;;;5013368;28;20205;-79
2022/11/12 09:58:50;;;;;;;5.65;5.15;;;;;;;;;;5012872;28;20229;-79
2022/11/12 10:01:19;;;;;;;6.90;5.28;;;;;;;;;;5013283;28;20232;-79
2022/11/12 10:03:53;;;;;;;7.30;5.20;;;;;;;;;;5012977;28;20786;-79
2022/11/12 10:06:22;;;;;;;6.05;4.90;;;;;;;;;;5013024;28;20200;-79
2022/11/12 10:08:53;;;;;;;10.18;4.90;;;;;;;;;;5013377;28;20717;-79
2022/11/12 10:11:27;;;;;;;7.45;4.60;;;;;;;;;;5013029;28;20207;-79
2022/11/12 10:14:01;;;;;;;6.90;4.68;;;;;;;;;;5010678;28;20288;-79
2022/11/12 10:16:44;;;;;;;5.00;4.50;;;;;;;;;;5013028;28;20284;-79
2022/11/12 10:19:19;;;;;;;5.43;4.38;;;;;;;;;;5012862;28;20565;-80
2022/11/12 10:21:51;;;;;;;6.55;4.60;;;;;;;;;;5013483;28;20251;-79
2022/11/12 10:24:21;;;;;;;7.57;4.13;;;;;;;;;;5009197;28;20659;-79
2022/11/12 10:26:49;;;;;;;6.20;4.63;;;;;;;;;;5026097;28;20258;-79
2022/11/12 10:29:23;;;;;;;6.25;4.50;;;;;;;;;;5023031;28;20749;-79
2022/11/12 10:31:50;;;;;;;5.43;4.07;;;;;;;;;;5018012;28;20281;-79
2022/11/12 10:34:20;;;;;;;4.63;3.75;;;;;;;;;;5010016;28;20693;-79
2022/11/12 10:36:49;;;;;;;5.07;4.28;;;;;;;;;;5013134;28;20205;-79
2022/11/12 10:39:33;;;;;;;6.90;4.05;;;;;;;;;;5012954;28;20228;-79
2022/11/12 10:42:04;;;;;;;4.82;3.58;;;;;;;;;;5009383;28;20224;-79
2022/11/12 10:44:31;;;;;;;5.32;4.40;;;;;;;;;;5025933;28;20251;-78
2022/11/12 10:47:18;;;;;;;6.78;4.22;;;;;;;;;;5018515;28;20229;-79
2022/11/12 10:49:59;;;;;;;4.40;3.72;;;;;;;;;;5012494;28;20244;-79
2022/11/12 10:52:27;;;;;;;7.35;4.03;;;;;;;;;;5015933;28;20647;-77
2022/11/12 10:55:04;;;;;;;5.60;3.95;;;;;;;;;;5025279;28;20225;-79
2022/11/12 10:57:31;;;;;;;5.25;4.20;;;;;;;;;;5017575;28;20203;-79
2022/11/12 11:00:09;;;;;;;5.72;3.90;;;;;;;;;;5018861;28;20619;-78
2022/11/12 11:02:36;;;;;;;6.47;3.92;;;;;;;;;;5021780;28;20738;-79
2022/11/12 11:05:18;;;;;;;7.93;4.20;;;;;;;;;;5018687;28;20696;-78
2022/11/12 11:07:51;;;;;;;5.38;4.03;;;;;;;;;;5012410;28;20237;-79
2022/11/12 11:10:23;;;;;;;5.97;3.80;;;;;;;;;;5015819;28;20226;-79
2022/11/12 11:12:52;;;;;;;6.65;4.13;;;;;;;;;;5021505;28;20643;-79
2022/11/12 11:15:20;;;;;;;4.38;3.95;;;;;;;;;;5023768;28;20645;-79
2022/11/12 11:17:47;;;;;;;5.13;4.25;;;;;;;;;;5016790;28;20657;-79
2022/11/12 11:20:17;;;;;;;7.75;4.40;;;;;;;;;;5012385;28;20300;-79
2022/11/12 11:22:46;;;;;;;7.85;4.97;;;;;;;;;;5023974;28;20193;-79
2022/11/12 11:25:20;;;;;;;6.55;4.53;;;;;;;;;;5011130;28;20295;-79
2022/11/12 11:27:55;;;;;;;7.13;4.70;;;;;;;;;;5016879;28;20219;-79
2022/11/12 11:30:22;;;;;;;6.60;5.22;;;;;;;;;;5012573;28;20765;-79
2022/11/12 11:33:03;;;;;;;6.70;5.15;;;;;;;;;;5032691;28;20239;-78
2022/11/12 11:35:45;;;;;;;6.35;4.38;;;;;;;;;;5027500;28;20262;-78
2022/11/12 11:38:21;;;;;;;8.50;4.70;;;;;;;;;;5012467;28;20243;-78
2022/11/12 11:40:57;;;;;;;8.13;4.82;;;;;;;;;;5029986;28;20578;-78
2022/11/12 11:43:36;;;;;;;8.98;6.25;;;;;;;;;;5035942;28;20292;-79
2022/11/12 11:46:07;;;;;;;7.80;4.90;;;;;;;;;;5036255;28;20192;-78
2022/11/12 11:48:41;;;;;;;9.63;5.57;;;;;;;;;;4998654;28;20300;-79
2022/11/12 11:51:14;;;;;;;5.82;5.00;;;;;;;;;;5019327;28;20299;-79
2022/11/12 11:53:47;;;;;;;6.72;4.57;;;;;;;;;;5023149;28;20205;-79
2022/11/12 11:56:22;;;;;;;7.38;5.00;;;;;;;;;;5015899;28;20288;-79
2022/11/12 11:59:05;;;;;;;9.85;6.20;;;;;;;;;;5013513;28;20236;-79
2022/11/12 12:01:38;;;;;;;11.07;8.38;;;;;;;;;;5013069;28;20289;-79
2022/11/12 12:04:23;;;;;;;11.00;7.25;;;;;;;;;;5016363;28;20271;-78
2022/11/12 12:07:05;;;;;;;10.73;7.53;;;;;;;;;;5021874;28;20201;-77
2022/11/12 12:09:36;;;;;;;9.85;7.60;;;;;;;;;;5028093;28;20287;-78
2022/11/12 12:12:13;;;;;;;16.30;10.93;;;;;;;;;;5021448;28;20248;-78
2022/11/12 12:14:46;;;;;;;15.73;10.75;;;;;;;;;;5015341;28;20272;-78
2022/11/12 12:17:19;;;;;;;13.90;9.85;;;;;;;;;;5021326;28;20279;-78
2022/11/12 12:19:53;;;;;;;11.55;8.05;;;;;;;;;;5020575;28;20296;-78
2022/11/12 12:22:21;;;;;;;9.07;6.30;;;;;;;;;;5016802;28;20212;-78
2022/11/12 12:24:50;;;;;;;7.75;6.60;;;;;;;;;;5031782;28;20307;-78
2022/11/12 12:27:21;;;;;;;7.18;5.13;;;;;;;;;;5019887;28;20279;-77
2022/11/12 12:29:51;;;;;;;8.23;5.25;;;;;;;;;;5028712;28;20246;-78
2022/11/12 12:32:20;;;;;;;9.15;6.82;;;;;;;;;;5028396;28;20230;-78
2022/11/12 12:34:49;;;;;;;9.15;5.85;;;;;;;;;;5018550;28;20193;-78
2022/11/12 12:37:22;;;;;;;7.55;5.40;;;;;;;;;;5022516;28;20215;-78
2022/11/12 12:39:53;;;;;;;8.80;5.50;;;;;;;;;;5029544;28;20299;-78
2022/11/12 12:42:23;;;;;;;9.38;5.28;;;;;;;;;;5016412;28;20229;-79
2022/11/12 12:45:03;;;;;;;6.25;5.03;;;;;;;;;;5008523;28;20761;-79
2022/11/12 12:47:34;;;;;;;21.60;18.38;;;;;;;;;;5012839;28;20608;-79
2022/11/12 12:50:03;;;;;;;13.35;7.88;;;;;;;;;;5024179;28;20322;-81
2022/11/12 12:52:31;;;;;;;6.82;5.55;;;;;;;;;;5034641;28;20606;-81
2022/11/12 12:54:58;;;;;;;9.45;7.30;;;;;;;;;;5035346;28;20201;-81
2022/11/12 12:57:35;;;;;;;6.70;4.70;;;;;;;;;;5020432;28;20205;-81
2022/11/12 13:00:21;;;;;;;10.07;6.20;;;;;;;;;;5014636;28;20292;-81
2022/11/12 13:02:48;;;;;;;8.68;5.50;;;;;;;;;;5015050;28;20296;-81
2022/11/12 13:05:25;;;;;;;7.18;5.32;;;;;;;;;;5014670;28;20316;-81
2022/11/12 13:07:53;;;;;;;5.70;5.07;;;;;;;;;;4997243;28;20248;-81
2022/11/12 13:10:50;;;;;;;6.50;5.07;;;;;;;;;;5002152;28;20383;-81
2022/11/12 13:13:27;;;;;;;10.00;5.38;;;;;;;;;;4992578;28;20216;-81
2022/11/12 13:15:55;;;;;;;7.20;5.30;;;;;;;;;;4984329;28;20567;-81
2022/11/12 13:18:40;;;;;;;6.05;5.05;;;;;;;;;;4973287;28;20218;-81
2022/11/12 13:21:09;;;;;;;9.40;5.47;;;;;;;;;;4987690;28;20284;-81
2022/11/12 13:26:45;;;;;;;8.35;5.30;;;;;;;;;;4989055;28;20265;-81
2022/11/12 13:29:40;;;;;;;10.00;5.68;;;;;;;;;;4992684;28;20860;-82
2022/11/12 13:32:31;;;;;;;7.97;5.50;;;;;;;;;;4973766;28;20696;-81
2022/11/12 13:35:16;;;;;;;8.63;5.50;;;;;;;;;;4963496;28;20238;-81
2022/11/12 13:37:44;;;;;;;6.35;5.50;;;;;;;;;;4976493;28;20249;-81
2022/11/12 13:40:12;;;;;;;8.63;5.40;;;;;;;;;;4976539;28;20632;-81
2022/11/12 13:42:49;;;;;;;8.35;5.32;;;;;;;;;;4973006;28;20394;-81
2022/11/12 13:45:18;;;;;;;6.75;5.22;;;;;;;;;;4973211;28;20223;-81
2022/11/12 13:47:46;;;;;;;7.70;5.72;;;;;;;;;;4999718;28;20287;-81
2022/11/12 13:50:17;;;;;;;7.95;5.72;;;;;;;;;;5029894;28;20232;-80
2022/11/12 13:52:44;;;;;;;7.50;5.72;;;;;;;;;;4994698;28;20260;-81
2022/11/12 13:55:14;;;;;;;10.73;5.85;;;;;;;;;;4994362;28;20806;-80
2022/11/12 13:57:41;;;;;;;6.88;5.53;;;;;;;;;;4993802;28;20296;-80
2022/11/12 14:00:26;;;;;;;7.65;4.97;;;;;;;;;;5010743;28;20259;-80
2022/11/12 14:02:57;;;;;;;8.25;5.32;;;;;;;;;;5001483;28;20224;-81
2022/11/12 14:05:25;;;;;;;9.43;6.05;;;;;;;;;;5033115;28;20270;-80
2022/11/12 14:08:00;;;;;;;8.77;5.70;;;;;;;;;;5022789;28;20640;-80
2022/11/12 14:10:33;;;;;;;7.45;5.65;;;;;;;;;;5014367;28;20291;-81
2022/11/12 14:13:11;;;;;;;8.50;5.45;;;;;;;;;;5026415;28;20236;-80
2022/11/12 14:15:50;;;;;;;6.70;5.30;;;;;;;;;;5015131;28;20331;-81
2022/11/12 14:18:24;;;;;;;7.63;5.03;;;;;;;;;;5013283;28;20236;-81
2022/11/12 14:20:51;;;;;;;6.15;5.13;;;;;;;;;;5013537;28;20764;-81
2022/11/12 14:23:20;;;;;;;7.57;5.60;;;;;;;;;;5013418;28;20732;-80
2022/11/12 14:25:48;;;;;;;7.40;5.05;;;;;;;;;;5013539;28;20221;-80
2022/11/12 14:28:28;;;;;;;7.28;5.18;;;;;;;;;;5029531;28;20209;-80
2022/11/12 14:30:55;;;;;;;8.02;4.88;;;;;;;;;;5013655;28;20335;-80
2022/11/12 14:33:25;;;;;;;8.50;5.57;;;;;;;;;;5012225;28;20738;-80
2022/11/12 14:35:53;;;;;;;7.80;5.13;;;;;;;;;;5012809;28;20204;-80
2022/11/12 14:38:22;;;;;;;7.45;5.57;;;;;;;;;;5015168;28;20295;-80
2022/11/12 14:40:50;;;;;;;8.77;5.13;;;;;;;;;;5013707;28;20236;-80
2022/11/12 14:43:36;;;;;;;6.95;5.07;;;;;;;;;;5021882;28;20676;-80
2022/11/12 14:46:04;;;;;;;7.10;5.40;;;;;;;;;;5031874;28;20562;-80
2022/11/12 14:48:35;;;;;;;5.93;5.10;;;;;;;;;;5019834;28;20296;-80
2022/11/12 14:51:04;;;;;;;7.05;5.03;;;;;;;;;;5021702;28;21019;-80
2022/11/12 14:53:33;;;;;;;7.10;4.95;;;;;;;;;;5024468;28;20291;-80
2022/11/12 14:56:02;;;;;;;7.22;4.55;;;;;;;;;;5010829;28;20285;-80
2022/11/12 14:58:29;;;;;;;6.55;5.10;;;;;;;;;;5011899;28;20243;-80
2022/11/12 15:00:56;;;;;;;7.32;5.10;;;;;;;;;;5018356;28;20301;-80
2022/11/12 15:03:25;;;;;;;6.57;4.95;;;;;;;;;;5017065;28;20239;-80
2022/11/12 15:05:58;;;;;;;9.70;4.82;;;;;;;;;;5021184;28;20662;-81
2022/11/12 15:08:33;;;;;;;8.63;5.38;;;;;;;;;;5018923;28;20291;-81